X  Cerrar Datos meteorológicos de aviación METAR     LEZL Sevilla Airport
Temperatura
28°C Temperatura
9°C Punto de rocío
30% Humedad



Viento
5 KM/H
3 MPH
1 M/S
3 NUDO



130°
SE
Condiciones actuales

Despejado Despejado
Presión 1022.01 (hPa) - 30.18 (inHg)
Visibilidad 6 (milla) - 9.7 (km)
Aeropuerto
Código de aeropuerto LEZL

localidad: Sevilla Airport
Distancia: 41 (km)

Metar:
LEZL 131630Z 13003KT 080V250 CAVOK 28/09 Q1022 NOSIG

Hora: 13-04-2024 18:30 CEST